createdAt,value
2023-01-03T00:03:38.874Z,98549.81
2023-01-03T00:07:57.975Z,98547.22
2023-01-03T00:12:30.563Z,98556.97
2023-01-03T00:16:53.303Z,98561.94
2023-01-03T00:21:10.846Z,98556.34
2023-01-03T00:25:29.763Z,98564.91
2023-01-03T00:29:48.497Z,98561.50
2023-01-03T00:34:07.019Z,98557.16
2023-01-03T00:38:24.626Z,98564.09
2023-01-03T00:43:00.940Z,98559.91
2023-01-03T00:47:18.641Z,98565.06
2023-01-03T00:51:39.082Z,98562.03
2023-01-03T00:56:04.272Z,98575.34
2023-01-03T01:00:21.893Z,98584.34
2023-01-03T01:04:39.658Z,98599.84
2023-01-03T01:08:59.780Z,98601.44
2023-01-03T01:13:17.363Z,98599.00
2023-01-03T01:17:34.946Z,98605.81
2023-01-03T01:21:53.199Z,98596.44
2023-01-03T01:26:19.071Z,98600.00
2023-01-03T01:30:38.511Z,98599.41
2023-01-03T01:34:56.262Z,98596.81
2023-01-03T01:39:23.811Z,98609.72
2023-01-03T01:44:16.795Z,98600.19
2023-01-03T01:48:34.557Z,98601.97
2023-01-03T01:53:01.488Z,98604.56
2023-01-03T01:57:22.676Z,98609.72
2023-01-03T02:01:43.441Z,98619.69
2023-01-03T02:06:04.893Z,98616.94
2023-01-03T02:11:02.112Z,98616.31
2023-01-03T02:16:06.927Z,98623.25
2023-01-03T02:20:47.414Z,98624.25
2023-01-03T02:25:13.606Z,98626.03
2023-01-03T02:30:12.653Z,98634.38
2023-01-03T02:35:13.489Z,98640.53
2023-01-03T02:39:57.283Z,98651.69
2023-01-03T02:44:27.997Z,98656.84
2023-01-03T02:49:08.452Z,98655.88
2023-01-03T02:53:39.597Z,98651.34
2023-01-03T02:58:21.339Z,98664.25
2023-01-03T03:02:46.180Z,98664.25
2023-01-03T03:07:32.206Z,98668.28
2023-01-03T03:12:20.063Z,98689.09
2023-01-03T03:16:49.669Z,98690.09
2023-01-03T03:21:29.849Z,98691.34
2023-01-03T03:25:59.732Z,98687.31
2023-01-03T03:30:21.849Z,98684.72
2023-01-03T03:34:40.053Z,98686.53
2023-01-03T03:38:57.947Z,98697.19
2023-01-03T03:43:46.727Z,98693.03
2023-01-03T03:48:30.180Z,98697.31
2023-01-03T03:52:53.246Z,98698.81
2023-01-03T03:57:23.284Z,98699.78
2023-01-03T04:01:42.823Z,98719.56
2023-01-03T04:06:06.480Z,98723.41
2023-01-03T04:10:24.486Z,98732.03
2023-01-03T04:14:43.010Z,98736.41
2023-01-03T04:19:00.624Z,98732.22
2023-01-03T04:23:18.344Z,98742.22
2023-01-03T04:27:36.509Z,98743.72
2023-01-03T04:31:54.123Z,98756.81
2023-01-03T04:36:11.708Z,98755.84
2023-01-03T04:40:29.095Z,98747.75
2023-01-03T04:44:46.603Z,98756.47
2023-01-03T04:49:07.026Z,98764.22
2023-01-03T04:53:26.538Z,98763.25
2023-01-03T04:57:43.819Z,98774.72
2023-01-03T05:02:02.247Z,98766.00
2023-01-03T05:06:20.378Z,98771.06
2023-01-03T05:10:41.639Z,98771.06
2023-01-03T05:14:59.433Z,98760.84
2023-01-03T05:19:17.139Z,98768.59
2023-01-03T05:23:53.666Z,98782.06
2023-01-03T05:28:15.391Z,98799.59
2023-01-03T05:32:35.116Z,98793.78
2023-01-03T05:36:52.613Z,98804.31
2023-01-03T05:41:10.468Z,98813.84
2023-01-03T05:45:28.102Z,98817.84
2023-01-03T05:49:45.478Z,98824.72
2023-01-03T05:54:03.176Z,98820.63
2023-01-03T05:58:20.635Z,98834.97
2023-01-03T06:02:38.194Z,98836.81
2023-01-03T06:06:55.742Z,98857.66
2023-01-03T06:11:15.501Z,98848.84
2023-01-03T06:15:34.174Z,98862.84
2023-01-03T06:19:51.802Z,98866.34
2023-01-03T06:24:09.975Z,98878.25
2023-01-03T06:28:27.299Z,98883.63
2023-01-03T06:32:45.043Z,98890.59
2023-01-03T06:37:02.647Z,98889.47
2023-01-03T06:41:20.213Z,98897.06
2023-01-03T06:45:56.423Z,98905.25
2023-01-03T06:50:32.893Z,98907.56
2023-01-03T06:54:50.167Z,98906.88
2023-01-03T06:59:08.127Z,98917.72
2023-01-03T07:03:25.628Z,98919.50
2023-01-03T07:07:43.522Z,98944.66
2023-01-03T07:12:20.990Z,98940.28
2023-01-03T07:16:44.625Z,98959.69
2023-01-03T07:21:06.952Z,98967.72
2023-01-03T07:25:24.885Z,98969.84
2023-01-03T07:29:42.356Z,98964.69
2023-01-03T07:34:01.554Z,98974.78
2023-01-03T07:38:19.226Z,98975.38
2023-01-03T07:42:55.406Z,98993.47
2023-01-03T07:47:12.932Z,98998.78
2023-01-03T07:51:30.392Z,98997.84
2023-01-03T07:55:48.030Z,98996.19
2023-01-03T08:00:06.427Z,99009.81
2023-01-03T08:04:23.636Z,99012.16
2023-01-03T08:08:42.036Z,99024.56
2023-01-03T08:13:17.666Z,99027.31
2023-01-03T08:17:36.323Z,99023.56
2023-01-03T08:21:53.978Z,99024.84
2023-01-03T08:26:15.657Z,99010.84
2023-01-03T08:30:36.250Z,99030.69
2023-01-03T08:34:54.732Z,99031.56
2023-01-03T08:39:18.879Z,99033.16
2023-01-03T08:43:41.013Z,99032.56
2023-01-03T08:48:01.800Z,99043.69
2023-01-03T08:52:19.324Z,99044.81
2023-01-03T08:56:37.039Z,99048.22
2023-01-03T09:00:54.458Z,99039.59
2023-01-03T09:05:12.124Z,99048.97
2023-01-03T09:09:29.303Z,99057.69
2023-01-03T09:13:47.022Z,99053.69
2023-01-03T09:18:04.579Z,99067.16
2023-01-03T09:22:22.106Z,99062.69
2023-01-03T09:26:39.992Z,99069.00
2023-01-03T09:30:57.686Z,99068.34
2023-01-03T09:35:15.455Z,99073.38
2023-01-03T09:39:33.391Z,99075.63
2023-01-03T09:44:02.541Z,99079.75
2023-01-03T09:48:34.078Z,99078.44
2023-01-03T09:53:10.851Z,99080.25
2023-01-03T09:57:50.321Z,99064.13
2023-01-03T10:03:00.904Z,99069.91
2023-01-03T10:07:49.433Z,99062.88
2023-01-03T10:12:25.574Z,99050.97
2023-01-03T10:17:11.553Z,99065.03
2023-01-03T10:21:28.989Z,99061.59
2023-01-03T10:25:48.695Z,99068.91
2023-01-03T10:30:12.346Z,99056.75
2023-01-03T10:34:29.731Z,99054.31
2023-01-03T10:38:52.791Z,99040.56
2023-01-03T10:43:39.235Z,99042.22
2023-01-03T10:48:02.002Z,99044.63
2023-01-03T10:52:23.051Z,99060.75
2023-01-03T10:56:40.562Z,99059.81
2023-01-03T11:01:24.650Z,99048.81
2023-01-03T11:05:49.556Z,99054.56
2023-01-03T11:10:17.848Z,99063.81
2023-01-03T11:14:35.430Z,99045.78
2023-01-03T11:19:04.572Z,99072.44
2023-01-03T11:23:54.788Z,99069.28
2023-01-03T11:29:23.214Z,99080.59
2023-01-03T11:34:02.961Z,99076.31
2023-01-03T11:38:59.009Z,99088.22
2023-01-03T11:43:57.791Z,99072.22
2023-01-03T11:48:32.491Z,99047.28
2023-01-03T11:53:10.944Z,99054.97
2023-01-03T11:57:59.186Z,99033.16
2023-01-03T12:02:44.461Z,99042.22
2023-01-03T12:12:56.243Z,99027.97
2023-01-03T12:17:24.528Z,99044.38
2023-01-03T12:21:48.286Z,99018.22
2023-01-03T12:26:10.485Z,99013.66
2023-01-03T12:31:09.714Z,99019.34
2023-01-03T12:35:59.931Z,99003.66
2023-01-03T12:40:52.475Z,99018.69
2023-01-03T12:45:28.407Z,99021.50
2023-01-03T12:50:14.901Z,99049.28
2023-01-03T12:54:51.007Z,99046.66
2023-01-03T12:59:29.748Z,99034.97
2023-01-03T13:03:55.568Z,99028.69
2023-01-03T13:08:39.683Z,99041.09
2023-01-03T13:12:57.487Z,99044.22
2023-01-03T13:17:20.074Z,99043.03
2023-01-03T13:21:49.575Z,99031.56
2023-01-03T13:26:21.195Z,99023.00
2023-01-03T13:30:38.900Z,99026.47
2023-01-03T13:34:59.235Z,99021.28
2023-01-03T13:39:51.539Z,99010.53
2023-01-03T13:44:23.446Z,98994.72
2023-01-03T13:48:50.903Z,99003.00
2023-01-03T13:53:11.175Z,99007.38
2023-01-03T13:57:38.057Z,99010.41
2023-01-03T14:02:11.733Z,99022.25
2023-01-03T14:07:13.141Z,99032.75
2023-01-03T14:12:15.931Z,99038.91
2023-01-03T14:16:48.704Z,99045.72
2023-01-03T14:21:14.741Z,99042.53
2023-01-03T14:25:45.606Z,99048.63
2023-01-03T14:30:04.360Z,99043.13
2023-01-03T14:34:40.371Z,99041.06
2023-01-03T14:39:02.427Z,99044.44
2023-01-03T14:43:21.725Z,99043.19
2023-01-03T14:47:42.188Z,99047.84
2023-01-03T14:52:28.795Z,99053.47
2023-01-03T14:56:47.531Z,99052.66
2023-01-03T15:01:08.372Z,99050.28
2023-01-03T15:05:41.154Z,99058.16
2023-01-03T15:10:46.338Z,99059.59
2023-01-03T15:15:29.639Z,99066.63
2023-01-03T15:19:55.047Z,99065.88
2023-01-03T15:24:21.500Z,99075.50
2023-01-03T15:28:54.941Z,99083.44
2023-01-03T15:33:33.199Z,99083.75
2023-01-03T15:37:55.552Z,99095.59
2023-01-03T15:42:46.829Z,99100.44
2023-01-03T15:47:08.716Z,99101.22
2023-01-03T15:51:26.267Z,99110.94
2023-01-03T15:55:43.850Z,99109.97
2023-01-03T16:00:07.211Z,99127.91
2023-01-03T16:04:25.459Z,99119.22
2023-01-03T16:08:44.110Z,99121.78
2023-01-03T16:13:01.653Z,99129.06
2023-01-03T16:17:26.407Z,99136.13
2023-01-03T16:22:02.550Z,99140.53
2023-01-03T16:26:22.698Z,99136.00
2023-01-03T16:30:39.923Z,99149.25
2023-01-03T16:35:01.473Z,99141.31
2023-01-03T16:39:27.049Z,99158.28
2023-01-03T16:43:44.708Z,99148.13
2023-01-03T16:48:02.295Z,99146.97
2023-01-03T16:52:27.383Z,99147.94
2023-01-03T16:56:45.733Z,99157.00
2023-01-03T17:01:04.384Z,99154.69
2023-01-03T17:05:22.581Z,99145.34
2023-01-03T17:09:40.763Z,99147.31
2023-01-03T17:14:03.539Z,99146.47
2023-01-03T17:18:31.753Z,99151.47
2023-01-03T17:22:56.649Z,99145.03
2023-01-03T17:27:31.904Z,99141.97
2023-01-03T17:31:50.785Z,99145.53
2023-01-03T17:36:28.412Z,99151.31
2023-01-03T17:40:48.806Z,99156.00
2023-01-03T17:45:29.079Z,99157.78
2023-01-03T17:49:46.848Z,99153.75
2023-01-03T17:54:04.601Z,99164.75
2023-01-03T17:58:32.508Z,99156.81
2023-01-03T18:02:51.343Z,99162.47
2023-01-03T18:07:10.047Z,99168.13
2023-01-03T18:11:27.621Z,99173.78
2023-01-03T18:15:45.350Z,99172.66
2023-01-03T18:20:02.572Z,99175.38
2023-01-03T18:24:28.861Z,99174.25
2023-01-03T18:28:46.489Z,99174.59
2023-01-03T18:33:03.908Z,99182.50
2023-01-03T18:37:24.706Z,99184.44
2023-01-03T18:41:43.667Z,99183.63
2023-01-03T18:46:01.220Z,99195.44
2023-01-03T18:50:20.289Z,99195.44
2023-01-03T18:54:39.188Z,99199.78
2023-01-03T18:59:02.339Z,99198.16
2023-01-03T19:03:24.076Z,99207.03
2023-01-03T19:07:47.669Z,99206.06
2023-01-03T19:12:07.422Z,99205.59
2023-01-03T19:16:32.108Z,99201.22
2023-01-03T19:20:50.332Z,99198.50
2023-01-03T19:25:13.409Z,99199.31
2023-01-03T19:29:39.759Z,99205.75
2023-01-03T19:33:57.283Z,99205.59
2023-01-03T19:38:14.845Z,99210.94
2023-01-03T19:42:47.506Z,99210.44
2023-01-03T19:47:09.657Z,99207.38
2023-01-03T19:51:27.038Z,99202.03
2023-01-03T19:55:47.086Z,99207.69
2023-01-03T20:00:05.412Z,99199.78
2023-01-03T20:04:23.767Z,99212.22
2023-01-03T20:08:41.318Z,99210.44
2023-01-03T20:13:00.410Z,99211.41
2023-01-03T20:17:25.096Z,99217.22
2023-01-03T20:21:43.004Z,99222.88
2023-01-03T20:26:02.464Z,99219.97
2023-01-03T20:30:22.756Z,99223.50
2023-01-03T20:34:40.565Z,99223.03
2023-01-03T20:38:58.325Z,99221.41
2023-01-03T20:43:17.678Z,99214.81
2023-01-03T20:47:35.721Z,99222.19
2023-01-03T20:51:54.208Z,99227.22
2023-01-03T20:56:13.553Z,99227.22
2023-01-03T21:00:35.180Z,99227.34
2023-01-03T21:04:53.129Z,99222.06
2023-01-03T21:09:14.531Z,99220.91
2023-01-03T21:13:32.359Z,99223.00
2023-01-03T21:17:51.257Z,99221.41
2023-01-03T21:22:20.415Z,99227.84
2023-01-03T21:26:38.194Z,99222.06
2023-01-03T21:31:01.310Z,99225.56
2023-01-03T21:35:24.628Z,99235.44
2023-01-03T21:39:42.192Z,99234.47
2023-01-03T21:44:13.176Z,99229.44
2023-01-03T21:48:30.371Z,99236.38
2023-01-03T21:52:48.046Z,99239.94
2023-01-03T21:57:05.463Z,99246.38
2023-01-03T22:01:24.376Z,99252.66
2023-01-03T22:05:41.818Z,99254.78
2023-01-03T22:10:19.030Z,99252.50
2023-01-03T22:14:37.172Z,99250.56
2023-01-03T22:18:54.277Z,99253.63
2023-01-03T22:23:12.549Z,99248.94
2023-01-03T22:27:30.045Z,99249.13
2023-01-03T22:31:49.118Z,99256.88
2023-01-03T22:36:08.335Z,99250.06
2023-01-03T22:40:26.018Z,99243.47
2023-01-03T22:44:43.709Z,99238.13
2023-01-03T22:49:01.372Z,99241.03
2023-01-03T22:53:19.097Z,99237.00
2023-01-03T22:57:36.584Z,99236.03
2023-01-03T23:01:54.329Z,99233.63
2023-01-03T23:06:18.365Z,99240.22
2023-01-03T23:10:36.060Z,99252.13
2023-01-03T23:14:53.736Z,99253.28
2023-01-03T23:19:15.833Z,99261.34
2023-01-03T23:23:33.217Z,99253.91
2023-01-03T23:27:50.764Z,99252.31
2023-01-03T23:32:09.347Z,99245.84
2023-01-03T23:36:28.305Z,99247.63
2023-01-03T23:40:45.682Z,99240.69
2023-01-03T23:45:04.599Z,99252.00
2023-01-03T23:49:22.154Z,99242.31
2023-01-03T23:53:42.804Z,99237.63
2023-01-03T23:58:00.002Z,99233.94
